| time (UTC) | temp C | wind direction | speed KPH | gust KPH | rain 1hr cm | rain 24hr cm | rain mn cm | humidity % | barometer mb |
| 20260510193038 | 24 | 172 | 4.8 | 8.0 | 0.13 | 1.65 | 0.30 | 81 | 1018.5 |
| 20260510191538 | 25 | 353 | 3.2 | 8.0 | 0.03 | 1.55 | 0.20 | 80 | 1019.0 |
| 20260510190055 | 25 | 23 | 6.4 | 12.9 | 0.03 | 1.55 | 0.20 | 83 | 1018.7 |
| 20260510184540 | 25 | 56 | 3.2 | 20.9 | 0.00 | 1.52 | 0.18 | 82 | 1019.0 |
| 20260510183039 | 25 | 7 | 9.7 | 16.1 | 0.18 | 1.52 | 0.18 | 83 | 1019.2 |
| 20260510181534 | 25 | 65 | 9.7 | 19.3 | 0.18 | 1.52 | 0.18 | 84 | 1019.0 |
| 20260510180035 | 24 | 78 | 16.1 | 24.1 | 0.18 | 1.52 | 0.18 | 88 | 1018.6 |
| 20260510174550 | 25 | 84 | 22.5 | 29.0 | 0.18 | 1.52 | 0.18 | 87 | 1018.9 |
| 20260510173038 | 26 | 53 | 11.3 | 22.5 | 0.00 | 1.32 | 0.00 | 84 | 1019.0 |
| 20260510171553 | 26 | 83 | 16.1 | 20.9 | 0.00 | 1.32 | 0.00 | 84 | 1019.0 |
| 20260510170045 | 27 | 86 | 12.9 | 22.5 | 0.00 | 1.32 | 0.00 | 76 | 1019.1 |
| 20260510164542 | 30 | 327 | 1.6 | 9.7 | 0.00 | 1.32 | 0.00 | 67 | 1019.2 |
| 20260510163049 | 29 | 283 | 6.4 | 11.3 | 0.00 | 1.32 | 0.00 | 69 | 1019.4 |
| 20260510161536 | 30 | 311 | 6.4 | 9.7 | 0.00 | 1.32 | 0.00 | 67 | 1019.5 |
| 20260510160043 | 30 | 321 | 4.8 | 11.3 | 0.00 | 1.32 | 0.00 | 70 | 1019.7 |
| 20260510154543 | 28 | 280 | 8.0 | 14.5 | 0.00 | 1.32 | 0.00 | 72 | 1019.7 |
| 20260510153044 | 28 | 316 | 8.0 | 17.7 | 0.00 | 1.32 | 0.00 | 72 | 1019.6 |
| 20260510151541 | 27 | 277 | 11.3 | 17.7 | 0.00 | 1.32 | 0.00 | 74 | 1019.5 |
| 20260510150048 | 27 | 252 | 9.7 | 19.3 | 0.00 | 1.32 | 0.00 | 74 | 1019.5 |
| 20260510144540 | 27 | 288 | 6.4 | 14.5 | 0.00 | 1.32 | 0.00 | 76 | 1019.4 |
| 20260510143042 | 27 | 265 | 6.4 | 12.9 | 0.00 | 1.32 | 0.00 | 77 | 1019.4 |
| 20260510141541 | 27 | 331 | 6.4 | 14.5 | 0.00 | 1.32 | 0.00 | 79 | 1019.2 |
| 20260510140039 | 26 | 254 | 8.0 | 16.1 | 0.00 | 1.32 | 0.00 | 83 | 1018.9 |
| 20260510134536 | 25 | 289 | 9.7 | 14.5 | 0.00 | 1.32 | 0.00 | 88 | 1018.8 |
| 20260510133038 | 25 | 295 | 6.4 | 11.3 | 0.00 | 1.32 | 0.00 | 90 | 1018.8 |
| 20260510131542 | 24 | 292 | 6.4 | 14.5 | 0.00 | 1.32 | 0.00 | 91 | 1018.7 |
| 20260510130042 | 23 | 256 | 9.7 | 14.5 | 0.00 | 1.32 | 0.00 | 92 | 1018.6 |
| 20260510124539 | 23 | 293 | 6.4 | 11.3 | 0.00 | 1.32 | 0.00 | 93 | 1018.6 |
| 20260510123039 | 23 | 274 | 6.4 | 9.7 | 0.00 | 1.32 | 0.00 | 93 | 1018.4 |
| 20260510121538 | 23 | 277 | 3.2 | 8.0 | 0.00 | 1.32 | 0.00 | 93 | 1018.1 |
| 20260510120043 | 22 | 300 | 4.8 | 6.4 | 0.00 | 1.32 | 0.00 | 93 | 1018.0 |
| 20260510114540 | 22 | 313 | 4.8 | 8.0 | 0.00 | 1.32 | 0.00 | 93 | 1017.9 |
| 20260510113042 | 22 | 303 | 4.8 | 6.4 | 0.00 | 1.32 | 0.00 | 93 | 1017.7 |
| 20260510111538 | 22 | 307 | 3.2 | 6.4 | 0.00 | 1.32 | 0.00 | 93 | 1017.6 |
| 20260510110048 | 22 | 321 | 4.8 | 9.7 | 0.00 | 1.32 | 0.00 | 93 | 1017.5 |
| 20260510104536 | 22 | 285 | 4.8 | 8.0 | 0.00 | 1.32 | 0.00 | 93 | 1017.2 |
| 20260510103046 | 22 | 321 | 3.2 | 4.8 | 0.00 | 1.32 | 0.00 | 93 | 1017.0 |
| 20260510101543 | 22 | 305 | 4.8 | 8.0 | 0.00 | 1.32 | 0.00 | 93 | 1016.7 |
| 20260510100047 | 22 | 291 | 4.8 | 8.0 | 0.00 | 1.32 | 0.00 | 93 | 1016.5 |
| 20260510094544 | 22 | 292 | 4.8 | 8.0 | 0.00 | 1.32 | 0.00 | 93 | 1016.5 |
| 20260510093039 | 22 | 276 | 4.8 | 8.0 | 0.00 | 1.32 | 0.00 | 93 | 1016.3 |
| 20260510091541 | 22 | 244 | 4.8 | 9.7 | 0.00 | 1.32 | 0.00 | 93 | 1016.2 |
| 20260510090040 | 22 | 250 | 6.4 | 9.7 | 0.00 | 1.32 | 0.00 | 93 | 1016.1 |
| 20260510084539 | 22 | 238 | 6.4 | 9.7 | 0.00 | 1.32 | 0.00 | 92 | 1016.1 |
| 20260510083037 | 22 | 260 | 4.8 | 8.0 | 0.00 | 1.32 | 0.00 | 93 | 1016.0 |
| 20260510081541 | 22 | 204 | 6.4 | 12.9 | 0.00 | 1.32 | 0.00 | 93 | 1015.7 |
| 20260510080055 | 22 | 224 | 6.4 | 8.0 | 0.00 | 1.32 | 0.00 | 93 | 1015.9 |
| 20260510074549 | 22 | 247 | 6.4 | 8.0 | 0.00 | 1.32 | 0.00 | 92 | 1016.0 |
| 20260510073047 | 22 | 243 | 6.4 | 8.0 | 0.00 | 1.32 | 0.00 | 92 | 1016.1 |
| 20260510071537 | 22 | 236 | 3.2 | 6.4 | 0.00 | 1.32 | 0.00 | 92 | 1016.2 |
| 20260510070045 | 22 | 231 | 4.8 | 8.0 | 0.00 | 1.32 | 0.00 | 92 | 1016.1 |
| 20260510064544 | 22 | 281 | 4.8 | 4.8 | 0.00 | 1.32 | 0.00 | 92 | 1016.5 |
| 20260510063039 | 22 | 285 | 4.8 | 4.8 | 0.00 | 1.32 | 0.00 | 92 | 1016.7 |
| 20260510061537 | 22 | 269 | 4.8 | 6.4 | 0.00 | 1.32 | 0.00 | 91 | 1016.8 |
| 20260510060044 | 22 | 287 | 3.2 | 6.4 | 0.00 | 1.32 | 0.00 | 91 | 1017.0 |
| 20260510054535 | 23 | 197 | 6.4 | 8.0 | 0.00 | 1.32 | 0.00 | 92 | 1017.0 |
| 20260510053046 | 23 | 193 | 4.8 | 9.7 | 0.00 | 1.32 | 0.00 | 91 | 1017.2 |
| 20260510051541 | 22 | 237 | 3.2 | 6.4 | 0.00 | 1.32 | 0.00 | 91 | 1017.5 |
| 20260510050040 | 23 | 300 | 3.2 | 6.4 | 0.00 | 1.32 | 0.00 | 90 | 1017.7 |
| 20260510044536 | 23 | 300 | 1.6 | 4.8 | 0.00 | 1.32 | 0.00 | 89 | 1017.7 |
| 20260510043036 | 23 | 281 | 3.2 | 6.4 | 0.00 | 1.32 | 0.00 | 88 | 1017.9 |
| 20260510041539 | 24 | 219 | 6.4 | 14.5 | 0.00 | 1.32 | 0.00 | 86 | 1017.8 |
| 20260510040045 | 24 | 170 | 8.0 | 16.1 | 0.00 | 1.32 | 0.00 | 86 | 1017.8 |
| 20260510034536 | 24 | 167 | 9.7 | 19.3 | 0.00 | 1.32 | 1.32 | 86 | 1017.8 |
| 20260510033046 | 24 | 172 | 14.5 | 19.3 | 0.00 | 1.32 | 1.32 | 87 | 1017.8 |
| 20260510031538 | 24 | 165 | 12.9 | 17.7 | 0.00 | 1.32 | 1.32 | 87 | 1017.7 |
| 20260510030043 | 24 | 174 | 8.0 | 12.9 | 0.00 | 1.32 | 1.32 | 87 | 1017.6 |
| 20260510024539 | 24 | 191 | 6.4 | 14.5 | 0.00 | 1.32 | 1.32 | 87 | 1017.6 |
| 20260510023037 | 24 | 178 | 6.4 | 11.3 | 0.00 | 1.32 | 1.32 | 88 | 1017.2 |
| 20260510021611 | 24 | 178 | 8.0 | 14.5 | 0.00 | 1.32 | 1.32 | 88 | 1017.4 |
| 20260510020036 | 23 | 127 | 9.7 | 11.3 | 0.00 | 1.32 | 1.32 | 90 | 1017.2 |
| 20260510014552 | 23 | 248 | 3.2 | 4.8 | 0.00 | 1.32 | 1.32 | 90 | 1017.0 |
| 20260510013043 | 23 | 301 | 0.0 | 3.2 | 0.00 | 1.32 | 1.32 | 90 | 1016.9 |
| 20260510011538 | 23 | 301 | 1.6 | 3.2 | 0.00 | 1.32 | 1.32 | 89 | 1016.8 |
| 20260510010049 | 23 | 301 | 1.6 | 3.2 | 0.00 | 1.32 | 1.32 | 89 | 1017.0 |
| 20260510004535 | 23 | 263 | 1.6 | 4.8 | 0.00 | 1.32 | 1.32 | 87 | 1016.7 |
| 20260510003034 | 23 | 20 | 1.6 | 3.2 | 0.00 | 1.32 | 1.32 | 87 | 1016.6 |
| 20260510001539 | 23 | 20 | 1.6 | 3.2 | 0.00 | 1.32 | 1.32 | 86 | 1016.4 |
| 20260510000037 | 23 | 25 | 3.2 | 8.0 | 0.00 | 1.32 | 1.32 | 85 | 1016.2 |
| 20260509234536 | 23 | 40 | 4.8 | 8.0 | 0.00 | 1.32 | 1.32 | 85 | 1015.9 |
| 20260509233035 | 23 | 31 | 4.8 | 9.7 | 0.00 | 1.32 | 1.32 | 85 | 1015.9 |
| 20260509231547 | 23 | 44 | 4.8 | 9.7 | 0.00 | 1.32 | 1.32 | 85 | 1015.9 |
| 20260509230044 | 23 | 23 | 4.8 | 9.7 | 0.00 | 1.32 | 1.32 | 85 | 1015.9 |
| 20260509224536 | 23 | 28 | 6.4 | 9.7 | 0.00 | 5.08 | 1.32 | 87 | 1015.7 |
| 20260509223038 | 23 | 39 | 3.2 | 9.7 | 0.00 | 5.08 | 1.32 | 87 | 1015.5 |
| 20260509221541 | 23 | 14 | 4.8 | 12.9 | 0.03 | 5.08 | 1.32 | 88 | 1015.6 |
| 20260509220048 | 24 | 44 | 6.4 | 9.7 | 0.18 | 5.08 | 1.32 | 89 | 1015.5 |
| 20260509214538 | 24 | 1 | 3.2 | 9.7 | 0.28 | 5.08 | 1.32 | 90 | 1015.5 |
| 20260509213037 | 24 | 56 | 3.2 | 6.4 | 0.36 | 5.08 | 1.32 | 89 | 1015.5 |
| 20260509211539 | 24 | 40 | 1.6 | 3.2 | 0.41 | 5.05 | 1.32 | 89 | 1015.5 |
| 20260509210045 | 23 | 359 | 3.2 | 17.7 | 0.61 | 4.88 | 1.14 | 88 | 1015.7 |
| 20260509204539 | 23 | 9 | 6.4 | 12.9 | 1.04 | 4.80 | 1.07 | 88 | 1015.4 |
| 20260509203037 | 23 | 51 | 1.6 | 9.7 | 0.99 | 4.72 | 0.99 | 88 | 1015.4 |
| 20260509201539 | 23 | 344 | 6.4 | 17.7 | 0.91 | 4.65 | 0.91 | 87 | 1015.8 |
| 20260509200050 | 25 | 307 | 4.8 | 16.1 | 0.51 | 4.24 | 0.51 | 87 | 1015.8 |
| 20260509194552 | 25 | 46 | 9.7 | 14.5 | 0.03 | 3.76 | 0.03 | 86 | 1014.8 |